Time;durP1;ratioP1;P1;durP2;ratioP2;P2;SDS_P1;SDS_P2;PMS_P1;PMS_P2;Temp;Humidity;BMP_temperature;BMP_pressure;BME280_temperature;BME280_humidity;BME280_pressure;Samples;Min_cycle;Max_cycle;Signal;HPM_P1;HPM_P2
2022/01/01 00:00:39;;;;;;;0.40;0.40;;;;;;;;;;5034338;28;20903;-62
2022/01/01 00:03:05;;;;;;;0.40;0.40;;;;;;;;;;5033790;28;20459;-62
2022/01/01 00:05:31;;;;;;;0.45;0.45;;;;;;;;;;5034120;28;20937;-62
2022/01/01 00:07:59;;;;;;;0.40;0.40;;;;;;;;;;5034030;28;20177;-62
2022/01/01 00:10:25;;;;;;;0.40;0.40;;;;;;;;;;5034145;28;20408;-62
2022/01/01 00:12:51;;;;;;;0.40;0.40;;;;;;;;;;5033761;28;20204;-62
2022/01/01 00:15:18;;;;;;;0.40;0.40;;;;;;;;;;5033854;28;20462;-62
2022/01/01 00:17:44;;;;;;;0.40;0.40;;;;;;;;;;5034007;28;20411;-62
2022/01/01 00:20:10;;;;;;;0.40;0.40;;;;;;;;;;5033904;28;20184;-62
2022/01/01 00:22:37;;;;;;;0.43;0.43;;;;;;;;;;5032620;28;20451;-62
2022/01/01 00:25:04;;;;;;;0.50;0.50;;;;;;;;;;5033880;28;20263;-62
2022/01/01 00:27:30;;;;;;;0.40;0.40;;;;;;;;;;5016048;28;20232;-62
2022/01/01 00:29:56;;;;;;;0.40;0.40;;;;;;;;;;5033755;28;20255;-63
2022/01/01 00:32:22;;;;;;;0.40;0.40;;;;;;;;;;5033469;28;20232;-62
2022/01/01 00:34:50;;;;;;;0.40;0.40;;;;;;;;;;5033425;28;20200;-62
2022/01/01 00:37:16;;;;;;;0.40;0.40;;;;;;;;;;5033522;28;20169;-63
2022/01/01 00:39:42;;;;;;;0.50;0.50;;;;;;;;;;5033516;28;20177;-62
2022/01/01 00:42:08;;;;;;;0.40;0.40;;;;;;;;;;5033396;28;20195;-62
2022/01/01 00:44:34;;;;;;;0.45;0.45;;;;;;;;;;5033441;28;20975;-62
2022/01/01 00:47:01;;;;;;;0.40;0.40;;;;;;;;;;5033752;28;20177;-60
2022/01/01 00:49:27;;;;;;;0.40;0.40;;;;;;;;;;5033234;28;20917;-62
2022/01/01 00:51:53;;;;;;;0.40;0.40;;;;;;;;;;5033103;28;20636;-62
2022/01/01 00:54:19;;;;;;;0.50;0.50;;;;;;;;;;5033216;28;20683;-63
2022/01/01 00:56:45;;;;;;;0.40;0.40;;;;;;;;;;5033365;28;20173;-62
2022/01/01 00:59:11;;;;;;;0.40;0.40;;;;;;;;;;5033200;28;20404;-62
2022/01/01 01:01:38;;;;;;;0.40;0.40;;;;;;;;;;5032906;28;20212;-62
2022/01/01 01:04:04;;;;;;;0.50;0.50;;;;;;;;;;5032848;28;20894;-62
2022/01/01 01:06:30;;;;;;;0.40;0.40;;;;;;;;;;5033366;28;20528;-63
2022/01/01 01:08:59;;;;;;;0.50;0.50;;;;;;;;;;5032982;28;20172;-61
2022/01/01 01:11:25;;;;;;;0.40;0.40;;;;;;;;;;5032713;28;20399;-62
2022/01/01 01:13:58;;;;;;;0.40;0.40;;;;;;;;;;5032857;28;20492;-62
2022/01/01 01:16:24;;;;;;;0.40;0.40;;;;;;;;;;5033201;28;20181;-62
2022/01/01 01:18:53;;;;;;;0.40;0.40;;;;;;;;;;5033191;28;20168;-60
2022/01/01 01:21:19;;;;;;;0.50;0.50;;;;;;;;;;5030821;28;20177;-60
2022/01/01 01:23:46;;;;;;;0.40;0.40;;;;;;;;;;5031857;28;20173;-60
2022/01/01 01:26:12;;;;;;;0.50;0.50;;;;;;;;;;5032573;28;20898;-62
2022/01/01 01:28:45;;;;;;;0.40;0.40;;;;;;;;;;5032238;28;20180;-60
2022/01/01 01:31:11;;;;;;;0.40;0.40;;;;;;;;;;5032618;28;20184;-60
2022/01/01 01:33:37;;;;;;;0.40;0.40;;;;;;;;;;5032131;28;20295;-60
2022/01/01 01:36:03;;;;;;;0.40;0.40;;;;;;;;;;5031777;28;20459;-62
2022/01/01 01:38:29;;;;;;;0.50;0.50;;;;;;;;;;5032240;28;20463;-62
2022/01/01 01:40:55;;;;;;;0.40;0.40;;;;;;;;;;5032386;28;20595;-63
2022/01/01 01:43:21;;;;;;;0.50;0.50;;;;;;;;;;5032009;28;20427;-62
2022/01/01 01:45:48;;;;;;;0.40;0.40;;;;;;;;;;5032242;28;20414;-62
2022/01/01 01:48:14;;;;;;;0.40;0.40;;;;;;;;;;5031718;28;20176;-60
2022/01/01 01:50:40;;;;;;;0.40;0.40;;;;;;;;;;5032869;28;20260;-59
2022/01/01 01:53:08;;;;;;;0.50;0.50;;;;;;;;;;5031719;28;20428;-60
2022/01/01 01:55:34;;;;;;;0.40;0.40;;;;;;;;;;5031911;28;20965;-60
2022/01/01 01:58:00;;;;;;;0.40;0.40;;;;;;;;;;5032518;28;20179;-60
2022/01/01 02:03:01;;;;;;;0.50;0.50;;;;;;;;;;5031749;28;20377;-60
2022/01/01 02:05:27;;;;;;;0.50;0.50;;;;;;;;;;5014090;28;20180;-60
2022/01/01 02:07:53;;;;;;;0.50;0.50;;;;;;;;;;5031976;28;20831;-60
2022/01/01 02:10:19;;;;;;;0.50;0.50;;;;;;;;;;5031837;28;20268;-60
2022/01/01 02:12:53;;;;;;;0.50;0.50;;;;;;;;;;5031613;28;20491;-62
2022/01/01 02:18:07;;;;;;;0.40;0.40;;;;;;;;;;5032074;28;20177;-59
2022/01/01 02:20:33;;;;;;;0.50;0.50;;;;;;;;;;5031635;28;20175;-60
2022/01/01 02:23:01;;;;;;;0.50;0.50;;;;;;;;;;5031438;28;20992;-63
2022/01/01 02:25:27;;;;;;;0.40;0.40;;;;;;;;;;5031644;28;20252;-60
2022/01/01 02:27:53;;;;;;;0.40;0.40;;;;;;;;;;5031147;28;20616;-57
2022/01/01 02:30:19;;;;;;;0.50;0.50;;;;;;;;;;5031436;28;20197;-60
2022/01/01 02:32:45;;;;;;;0.50;0.50;;;;;;;;;;5031341;28;20275;-60
2022/01/01 02:35:13;;;;;;;0.40;0.40;;;;;;;;;;5031493;28;20208;-60
2022/01/01 02:37:40;;;;;;;0.40;0.40;;;;;;;;;;5031555;28;20246;-59
2022/01/01 02:40:06;;;;;;;0.40;0.40;;;;;;;;;;5031489;28;20172;-60
2022/01/01 02:42:32;;;;;;;0.40;0.40;;;;;;;;;;5031153;28;20205;-60
2022/01/01 02:45:00;;;;;;;0.40;0.40;;;;;;;;;;5031343;28;20176;-61
2022/01/01 02:47:26;;;;;;;0.50;0.50;;;;;;;;;;5031570;28;20439;-59
2022/01/01 02:49:52;;;;;;;0.40;0.40;;;;;;;;;;5031572;28;20189;-62
2022/01/01 02:52:18;;;;;;;0.40;0.40;;;;;;;;;;5030953;28;20192;-60
2022/01/01 02:54:44;;;;;;;0.40;0.40;;;;;;;;;;5031107;28;20199;-62
2022/01/01 02:57:10;;;;;;;0.50;0.50;;;;;;;;;;5031363;28;20169;-60
2022/01/01 02:59:36;;;;;;;0.40;0.40;;;;;;;;;;5033107;28;20408;-62
2022/01/01 03:02:02;;;;;;;0.50;0.50;;;;;;;;;;5035269;28;20299;-62
2022/01/01 03:04:28;;;;;;;0.50;0.50;;;;;;;;;;5035025;28;20503;-62
2022/01/01 03:06:55;;;;;;;0.40;0.40;;;;;;;;;;5035462;28;20208;-60
2022/01/01 03:09:25;;;;;;;0.40;0.40;;;;;;;;;;5035129;28;20418;-60
2022/01/01 03:11:51;;;;;;;0.50;0.50;;;;;;;;;;5035042;28;20203;-62
2022/01/01 03:14:17;;;;;;;0.50;0.50;;;;;;;;;;5034918;28;20205;-62
2022/01/01 03:16:45;;;;;;;0.40;0.40;;;;;;;;;;5035071;28;20188;-60
2022/01/01 03:19:11;;;;;;;0.40;0.40;;;;;;;;;;5035029;28;20171;-60
2022/01/01 03:21:36;;;;;;;0.40;0.40;;;;;;;;;;5034871;28;20275;-60
2022/01/01 03:24:03;;;;;;;0.50;0.50;;;;;;;;;;5034603;28;20904;-60
2022/01/01 03:26:28;;;;;;;0.45;0.45;;;;;;;;;;5034796;28;20407;-60
2022/01/01 03:28:54;;;;;;;0.40;0.40;;;;;;;;;;5034815;28;20184;-60
2022/01/01 03:31:20;;;;;;;0.40;0.40;;;;;;;;;;5034888;28;20407;-60
2022/01/01 03:33:46;;;;;;;0.50;0.50;;;;;;;;;;5034509;28;20404;-60
2022/01/01 03:36:12;;;;;;;0.50;0.50;;;;;;;;;;5034613;28;20462;-60
2022/01/01 03:38:38;;;;;;;0.50;0.50;;;;;;;;;;5034541;28;20442;-60
2022/01/01 03:41:04;;;;;;;0.40;0.40;;;;;;;;;;5034587;28;20458;-60
2022/01/01 03:43:30;;;;;;;0.40;0.40;;;;;;;;;;5034360;28;20428;-60
2022/01/01 03:45:56;;;;;;;0.40;0.40;;;;;;;;;;5034439;28;20831;-60
2022/01/01 03:48:22;;;;;;;0.40;0.40;;;;;;;;;;5034390;28;20403;-60
2022/01/01 03:50:48;;;;;;;0.40;0.40;;;;;;;;;;5034140;28;20411;-60
2022/01/01 03:53:16;;;;;;;0.40;0.40;;;;;;;;;;5034104;28;20991;-60
2022/01/01 03:55:42;;;;;;;0.40;0.40;;;;;;;;;;5034292;28;20486;-60
2022/01/01 03:58:07;;;;;;;0.50;0.50;;;;;;;;;;5034319;28;20172;-60
2022/01/01 04:00:33;;;;;;;0.40;0.40;;;;;;;;;;5034244;28;20404;-62
2022/01/01 04:03:09;;;;;;;0.40;0.40;;;;;;;;;;5056557;22;20490;-64
2022/01/01 04:05:36;;;;;;;0.50;0.50;;;;;;;;;;5034592;28;20917;-64
2022/01/01 04:08:03;;;;;;;0.40;0.40;;;;;;;;;;5036779;28;20180;-63
2022/01/01 04:10:31;;;;;;;0.40;0.40;;;;;;;;;;5033614;28;20176;-63
2022/01/01 04:12:57;;;;;;;0.50;0.50;;;;;;;;;;5019374;28;20676;-64
2022/01/01 04:15:23;;;;;;;0.40;0.40;;;;;;;;;;5037637;28;20200;-64
2022/01/01 04:17:49;;;;;;;0.40;0.40;;;;;;;;;;5033806;28;20176;-64
2022/01/01 04:20:15;;;;;;;0.40;0.40;;;;;;;;;;5035365;28;20752;-63
2022/01/01 04:22:41;;;;;;;0.40;0.40;;;;;;;;;;5034077;28;20614;-63
2022/01/01 04:25:07;;;;;;;0.40;0.40;;;;;;;;;;5034420;28;20259;-63
2022/01/01 04:27:33;;;;;;;0.40;0.40;;;;;;;;;;5016233;28;20407;-63
2022/01/01 04:29:59;;;;;;;0.50;0.50;;;;;;;;;;5033892;28;20173;-64
2022/01/01 04:32:25;;;;;;;0.40;0.40;;;;;;;;;;5033569;28;20432;-63
2022/01/01 04:34:51;;;;;;;0.50;0.50;;;;;;;;;;5033371;28;20469;-64
2022/01/01 04:37:19;;;;;;;0.40;0.40;;;;;;;;;;5033436;28;20440;-63
2022/01/01 04:39:45;;;;;;;0.40;0.40;;;;;;;;;;5033424;28;20458;-63
2022/01/01 04:42:11;;;;;;;0.40;0.40;;;;;;;;;;5015520;28;20208;-63
2022/01/01 04:44:37;;;;;;;0.40;0.40;;;;;;;;;;5033204;28;20412;-63
2022/01/01 04:47:03;;;;;;;0.40;0.40;;;;;;;;;;5033227;28;20450;-63
2022/01/01 04:49:29;;;;;;;0.50;0.50;;;;;;;;;;5033386;28;20869;-63
2022/01/01 04:51:55;;;;;;;0.40;0.40;;;;;;;;;;5033043;28;20169;-63
2022/01/01 04:54:21;;;;;;;0.40;0.40;;;;;;;;;;5032876;28;20481;-63
2022/01/01 04:56:48;;;;;;;0.40;0.40;;;;;;;;;;5033142;28;20490;-63
2022/01/01 04:59:15;;;;;;;0.40;0.40;;;;;;;;;;5033201;28;20408;-63
2022/01/01 05:01:41;;;;;;;0.50;0.50;;;;;;;;;;5033288;28;20699;-63
2022/01/01 05:04:08;;;;;;;0.50;0.50;;;;;;;;;;5014616;28;20586;-63
2022/01/01 05:06:34;;;;;;;0.40;0.40;;;;;;;;;;5032924;28;20184;-63
2022/01/01 05:09:00;;;;;;;0.40;0.40;;;;;;;;;;5032873;28;20219;-63
2022/01/01 05:11:26;;;;;;;0.40;0.40;;;;;;;;;;5033012;28;20169;-63
2022/01/01 05:13:53;;;;;;;0.50;0.50;;;;;;;;;;5032387;28;20192;-63
2022/01/01 05:16:19;;;;;;;0.40;0.40;;;;;;;;;;5032518;28;20201;-63
2022/01/01 05:18:46;;;;;;;0.50;0.50;;;;;;;;;;5032750;28;20178;-63
2022/01/01 05:21:12;;;;;;;0.40;0.40;;;;;;;;;;5032344;28;20248;-63
2022/01/01 05:23:38;;;;;;;0.43;0.43;;;;;;;;;;5031981;28;20193;-63
2022/01/01 05:26:04;;;;;;;0.50;0.50;;;;;;;;;;5032750;28;20180;-63
2022/01/01 05:28:30;;;;;;;0.40;0.40;;;;;;;;;;5032645;28;20400;-63
2022/01/01 05:30:56;;;;;;;0.50;0.50;;;;;;;;;;5032461;28;20454;-63
2022/01/01 05:33:22;;;;;;;0.50;0.50;;;;;;;;;;5032098;28;20570;-63
2022/01/01 05:35:48;;;;;;;0.60;0.60;;;;;;;;;;5032237;28;20193;-63
2022/01/01 05:38:14;;;;;;;0.40;0.40;;;;;;;;;;5032325;28;20891;-63
2022/01/01 05:40:40;;;;;;;0.40;0.40;;;;;;;;;;5032498;28;20857;-63
2022/01/01 05:43:12;;;;;;;0.40;0.40;;;;;;;;;;5032008;28;20207;-63
2022/01/01 05:45:38;;;;;;;0.50;0.50;;;;;;;;;;5032136;28;20825;-63
2022/01/01 05:48:04;;;;;;;0.50;0.50;;;;;;;;;;5032099;28;20208;-63
2022/01/01 05:50:30;;;;;;;0.40;0.40;;;;;;;;;;5032018;28;20245;-63
2022/01/01 05:52:56;;;;;;;0.40;0.40;;;;;;;;;;5031695;28;20193;-63
2022/01/01 05:55:22;;;;;;;0.40;0.40;;;;;;;;;;5031990;28;20489;-63
2022/01/01 05:57:48;;;;;;;0.50;0.50;;;;;;;;;;5031947;28;20890;-63
2022/01/01 06:00:14;;;;;;;0.50;0.50;;;;;;;;;;5031884;28;20901;-63
2022/01/01 06:02:43;;;;;;;0.50;0.50;;;;;;;;;;5031368;28;21209;-63
2022/01/01 06:05:10;;;;;;;0.45;0.45;;;;;;;;;;5031906;28;20199;-63
2022/01/01 06:07:36;;;;;;;0.40;0.40;;;;;;;;;;5031929;28;20181;-63
2022/01/01 06:10:03;;;;;;;0.40;0.40;;;;;;;;;;5031786;28;20181;-63
2022/01/01 06:12:29;;;;;;;0.40;0.40;;;;;;;;;;5031504;28;20275;-63
2022/01/01 06:14:55;;;;;;;0.40;0.40;;;;;;;;;;5031584;28;20612;-63
2022/01/01 06:17:21;;;;;;;0.40;0.40;;;;;;;;;;5031562;28;20207;-63
2022/01/01 06:19:47;;;;;;;0.40;0.40;;;;;;;;;;5031667;28;20470;-63
2022/01/01 06:22:13;;;;;;;0.40;0.40;;;;;;;;;;5031404;28;20442;-63
2022/01/01 06:24:39;;;;;;;0.50;0.50;;;;;;;;;;5031370;28;20411;-63
2022/01/01 06:27:06;;;;;;;0.40;0.40;;;;;;;;;;5031497;28;20666;-63
2022/01/01 06:29:32;;;;;;;0.40;0.40;;;;;;;;;;5031805;28;20937;-63
2022/01/01 06:31:58;;;;;;;0.40;0.40;;;;;;;;;;5031446;28;20181;-63
2022/01/01 06:34:24;;;;;;;0.40;0.40;;;;;;;;;;5031038;28;20168;-63
2022/01/01 06:36:51;;;;;;;0.40;0.40;;;;;;;;;;5031500;28;20169;-63
2022/01/01 06:39:17;;;;;;;0.40;0.40;;;;;;;;;;5031407;28;20878;-63
2022/01/01 06:41:43;;;;;;;0.50;0.50;;;;;;;;;;5031372;28;20226;-63
2022/01/01 06:44:09;;;;;;;0.40;0.40;;;;;;;;;;5031259;28;20247;-63
2022/01/01 06:46:35;;;;;;;0.40;0.40;;;;;;;;;;5031438;28;20192;-63
2022/01/01 06:49:01;;;;;;;0.40;0.40;;;;;;;;;;5031261;28;20176;-63
2022/01/01 06:51:27;;;;;;;0.50;0.50;;;;;;;;;;5031385;28;20400;-63
2022/01/01 06:53:53;;;;;;;0.40;0.40;;;;;;;;;;5030254;28;20423;-63
2022/01/01 06:56:19;;;;;;;0.50;0.50;;;;;;;;;;5031228;28;20849;-63
2022/01/01 06:58:45;;;;;;;0.40;0.40;;;;;;;;;;5031490;28;20183;-63
2022/01/01 07:01:11;;;;;;;0.40;0.40;;;;;;;;;;5031160;28;20435;-64
2022/01/01 07:03:37;;;;;;;0.40;0.40;;;;;;;;;;5030860;28;20208;-64
2022/01/01 07:06:03;;;;;;;0.40;0.40;;;;;;;;;;5031385;28;20181;-64
2022/01/01 07:08:29;;;;;;;0.50;0.50;;;;;;;;;;5031144;28;20223;-64
2022/01/01 07:10:55;;;;;;;0.50;0.50;;;;;;;;;;5031179;28;20173;-64
2022/01/01 07:13:22;;;;;;;0.60;0.60;;;;;;;;;;5030816;28;20885;-64
2022/01/01 07:15:48;;;;;;;0.40;0.40;;;;;;;;;;5030867;28;20279;-64
2022/01/01 07:18:15;;;;;;;0.50;0.50;;;;;;;;;;5031175;28;20201;-64
2022/01/01 07:20:41;;;;;;;0.40;0.40;;;;;;;;;;5031088;28;20264;-64
2022/01/01 07:23:07;;;;;;;0.40;0.40;;;;;;;;;;5030706;28;20426;-64
2022/01/01 07:25:33;;;;;;;0.40;0.40;;;;;;;;;;5031305;28;20416;-64
2022/01/01 07:27:58;;;;;;;0.40;0.40;;;;;;;;;;5013860;28;20984;-64
2022/01/01 07:30:24;;;;;;;0.40;0.40;;;;;;;;;;5031358;28;20419;-63
2022/01/01 07:32:50;;;;;;;0.40;0.40;;;;;;;;;;5030874;28;20438;-64
2022/01/01 07:35:17;;;;;;;0.38;0.38;;;;;;;;;;5030608;28;20204;-64
2022/01/01 07:37:43;;;;;;;0.40;0.40;;;;;;;;;;5030953;28;20359;-64
2022/01/01 07:40:12;;;;;;;0.40;0.40;;;;;;;;;;5030920;28;20180;-64
2022/01/01 07:42:38;;;;;;;0.40;0.40;;;;;;;;;;5030589;28;20569;-64
2022/01/01 07:45:04;;;;;;;0.40;0.40;;;;;;;;;;5031610;28;20255;-64
2022/01/01 07:47:30;;;;;;;0.40;0.40;;;;;;;;;;5034378;28;20176;-64
2022/01/01 07:49:57;;;;;;;0.50;0.50;;;;;;;;;;5034258;28;20196;-64
2022/01/01 07:52:22;;;;;;;0.40;0.40;;;;;;;;;;5034149;28;20423;-64
2022/01/01 07:54:48;;;;;;;0.40;0.40;;;;;;;;;;5034067;28;20212;-64
2022/01/01 07:57:14;;;;;;;0.40;0.40;;;;;;;;;;5034281;28;20511;-64
2022/01/01 07:59:40;;;;;;;0.40;0.40;;;;;;;;;;5034225;28;20408;-64
2022/01/01 08:02:06;;;;;;;0.40;0.40;;;;;;;;;;5034028;28;20439;-63
2022/01/01 08:04:32;;;;;;;0.40;0.40;;;;;;;;;;5033401;28;20408;-64
2022/01/01 08:06:58;;;;;;;0.40;0.40;;;;;;;;;;5034067;28;20415;-63
2022/01/01 08:09:24;;;;;;;0.40;0.40;;;;;;;;;;5034091;28;20411;-64
2022/01/01 08:11:51;;;;;;;0.40;0.40;;;;;;;;;;5033985;28;20519;-64
2022/01/01 08:14:17;;;;;;;0.50;0.50;;;;;;;;;;5033892;28;20404;-63
2022/01/01 08:17:02;;;;;;;0.50;0.50;;;;;;;;;;5034080;28;20169;-63
2022/01/01 08:19:28;;;;;;;0.43;0.43;;;;;;;;;;5034055;28;20418;-64
2022/01/01 08:21:55;;;;;;;0.40;0.40;;;;;;;;;;5033838;28;20175;-63
2022/01/01 08:24:21;;;;;;;0.50;0.50;;;;;;;;;;5033621;28;20549;-63
2022/01/01 08:26:47;;;;;;;0.40;0.40;;;;;;;;;;5030238;28;20242;-64
2022/01/01 08:29:13;;;;;;;0.40;0.40;;;;;;;;;;5033702;28;20667;-63
2022/01/01 08:31:39;;;;;;;0.40;0.40;;;;;;;;;;5033295;28;20251;-63
2022/01/01 08:34:06;;;;;;;0.43;0.43;;;;;;;;;;5015119;28;20173;-63
2022/01/01 08:36:32;;;;;;;0.40;0.40;;;;;;;;;;5033228;28;20482;-64
2022/01/01 08:38:57;;;;;;;0.50;0.50;;;;;;;;;;5033133;28;20533;-63
2022/01/01 08:41:23;;;;;;;0.50;0.50;;;;;;;;;;5033359;28;20703;-64
2022/01/01 08:43:49;;;;;;;0.50;0.50;;;;;;;;;;5033077;28;20938;-64
2022/01/01 08:46:15;;;;;;;0.40;0.40;;;;;;;;;;5033040;28;20939;-63
2022/01/01 08:48:42;;;;;;;0.40;0.40;;;;;;;;;;5032824;28;20414;-63
2022/01/01 08:51:14;;;;;;;0.50;0.50;;;;;;;;;;5033826;28;20403;-63
2022/01/01 08:53:40;;;;;;;0.40;0.40;;;;;;;;;;5052745;28;20241;-64
2022/01/01 08:56:07;;;;;;;0.40;0.40;;;;;;;;;;5052314;28;20609;-64
2022/01/01 08:58:34;;;;;;;0.40;0.40;;;;;;;;;;5052094;28;20482;-63
2022/01/01 09:01:00;;;;;;;0.40;0.40;;;;;;;;;;5052296;28;20178;-63
2022/01/01 09:03:26;;;;;;;0.40;0.40;;;;;;;;;;5052589;28;20686;-63
2022/01/01 09:05:52;;;;;;;0.50;0.50;;;;;;;;;;5052831;28;20182;-63
2022/01/01 09:08:17;;;;;;;0.40;0.40;;;;;;;;;;5052864;28;20407;-63
2022/01/01 09:10:43;;;;;;;0.40;0.40;;;;;;;;;;5052060;28;20669;-63
2022/01/01 09:13:09;;;;;;;0.40;0.40;;;;;;;;;;5034286;28;20801;-63
2022/01/01 09:15:35;;;;;;;0.50;0.50;;;;;;;;;;5052562;28;20458;-63
2022/01/01 09:18:01;;;;;;;0.40;0.40;;;;;;;;;;5052358;28;20670;-63
2022/01/01 09:20:27;;;;;;;0.50;0.50;;;;;;;;;;5052776;28;20952;-64
2022/01/01 09:22:53;;;;;;;0.50;0.50;;;;;;;;;;5052264;28;21127;-64
2022/01/01 09:25:19;;;;;;;0.40;0.40;;;;;;;;;;5052578;28;20403;-64
2022/01/01 09:27:45;;;;;;;0.50;0.50;;;;;;;;;;5052476;28;20468;-64
2022/01/01 09:30:11;;;;;;;0.40;0.40;;;;;;;;;;5052631;28;20196;-64
2022/01/01 09:32:38;;;;;;;0.40;0.40;;;;;;;;;;5034323;28;20488;-64
2022/01/01 09:35:04;;;;;;;0.40;0.40;;;;;;;;;;5052822;28;20531;-64
2022/01/01 09:37:32;;;;;;;0.45;0.45;;;;;;;;;;5052429;28;20184;-64
2022/01/01 09:39:58;;;;;;;0.50;0.50;;;;;;;;;;5052260;28;20179;-64
2022/01/01 09:42:24;;;;;;;0.50;0.50;;;;;;;;;;5051978;28;20196;-64
2022/01/01 09:44:51;;;;;;;0.40;0.40;;;;;;;;;;5052224;28;20180;-64
2022/01/01 09:47:18;;;;;;;0.40;0.40;;;;;;;;;;5052240;28;20275;-64
2022/01/01 09:49:44;;;;;;;0.40;0.40;;;;;;;;;;5051980;28;20199;-64
2022/01/01 09:52:12;;;;;;;0.40;0.40;;;;;;;;;;5052003;28;20234;-64
2022/01/01 09:54:38;;;;;;;0.40;0.40;;;;;;;;;;5052006;28;20679;-64
2022/01/01 09:57:04;;;;;;;0.60;0.60;;;;;;;;;;5051970;28;20688;-64
2022/01/01 09:59:30;;;;;;;0.40;0.40;;;;;;;;;;5051732;28;20199;-64
2022/01/01 10:02:04;;;;;;;0.40;0.40;;;;;;;;;;5051817;28;20704;-64
2022/01/01 10:04:40;;;;;;;0.40;0.40;;;;;;;;;;5036260;22;20319;-65
2022/01/01 10:07:07;;;;;;;0.40;0.40;;;;;;;;;;5032393;28;20555;-65
2022/01/01 10:09:33;;;;;;;0.40;0.40;;;;;;;;;;5031664;28;20172;-65
2022/01/01 10:11:59;;;;;;;0.40;0.40;;;;;;;;;;5032087;28;20632;-65
2022/01/01 10:14:39;;;;;;;0.40;0.40;;;;;;;;;;5031601;28;20212;-65
2022/01/01 10:17:13;;;;;;;0.40;0.40;;;;;;;;;;5031902;28;20702;-65
2022/01/01 10:19:39;;;;;;;0.40;0.40;;;;;;;;;;5032262;28;20181;-65
2022/01/01 10:22:06;;;;;;;0.40;0.40;;;;;;;;;;5014224;28;20177;-65
2022/01/01 10:30:02;;;;;;;0.40;0.40;;;;;;;;;;5032004;28;20238;-65
2022/01/01 10:32:28;;;;;;;0.40;0.40;;;;;;;;;;5031511;28;20196;-62
2022/01/01 10:34:54;;;;;;;0.40;0.40;;;;;;;;;;5035011;28;20211;-66
2022/01/01 10:37:27;;;;;;;0.40;0.40;;;;;;;;;;5051970;28;20639;-66
2022/01/01 10:39:54;;;;;;;0.50;0.50;;;;;;;;;;5051779;28;20559;-67
2022/01/01 10:42:20;;;;;;;0.40;0.40;;;;;;;;;;5051742;28;20187;-64
2022/01/01 10:44:47;;;;;;;0.40;0.40;;;;;;;;;;5051643;28;20179;-65
2022/01/01 10:47:15;;;;;;;0.40;0.40;;;;;;;;;;5051831;28;20176;-65
2022/01/01 10:52:14;;;;;;;0.40;0.40;;;;;;;;;;5051525;28;20172;-67
2022/01/01 10:54:49;;;;;;;0.50;0.50;;;;;;;;;;5051543;28;20199;-66
2022/01/01 10:57:21;;;;;;;0.40;0.40;;;;;;;;;;5051818;28;20167;-66
2022/01/01 10:59:47;;;;;;;0.40;0.40;;;;;;;;;;5051768;28;20202;-66
2022/01/01 11:02:13;;;;;;;0.40;0.40;;;;;;;;;;5051563;28;20176;-67
2022/01/01 11:04:39;;;;;;;0.30;0.30;;;;;;;;;;5051216;28;20424;-67
2022/01/01 11:07:06;;;;;;;0.40;0.40;;;;;;;;;;5051505;28;20414;-66
2022/01/01 11:09:32;;;;;;;0.40;0.40;;;;;;;;;;5051448;28;20655;-66
2022/01/01 11:12:03;;;;;;;0.40;0.40;;;;;;;;;;5051534;28;20181;-66
2022/01/01 11:14:32;;;;;;;0.40;0.40;;;;;;;;;;5051050;28;20227;-67
2022/01/01 11:17:01;;;;;;;0.50;0.50;;;;;;;;;;5051491;28;20195;-67
2022/01/01 11:19:28;;;;;;;0.50;0.50;;;;;;;;;;5051454;28;20172;-64
2022/01/01 11:21:54;;;;;;;0.40;0.40;;;;;;;;;;5055074;28;20825;-64
2022/01/01 11:24:21;;;;;;;0.50;0.50;;;;;;;;;;5054820;28;20196;-66
2022/01/01 11:26:47;;;;;;;0.40;0.40;;;;;;;;;;5055095;28;20213;-66
2022/01/01 11:29:14;;;;;;;0.40;0.40;;;;;;;;;;5055025;28;20402;-66
2022/01/01 11:31:41;;;;;;;0.40;0.40;;;;;;;;;;5054899;28;20484;-66
2022/01/01 11:34:08;;;;;;;0.40;0.40;;;;;;;;;;5054589;28;20201;-65
2022/01/01 11:36:36;;;;;;;0.40;0.40;;;;;;;;;;5054924;28;20448;-63
2022/01/01 11:39:05;;;;;;;0.40;0.40;;;;;;;;;;5054815;28;20496;-66
2022/01/01 11:41:38;;;;;;;0.40;0.40;;;;;;;;;;5054853;28;20483;-65
2022/01/01 11:44:24;;;;;;;0.40;0.40;;;;;;;;;;5054422;28;20789;-65
2022/01/01 11:46:59;;;;;;;0.40;0.40;;;;;;;;;;5054707;28;20413;-65
2022/01/01 11:49:26;;;;;;;0.50;0.50;;;;;;;;;;5054662;28;20405;-66
2022/01/01 11:51:53;;;;;;;0.40;0.40;;;;;;;;;;5054669;28;20414;-66
2022/01/01 11:54:35;;;;;;;0.40;0.40;;;;;;;;;;5053269;28;20428;-67
2022/01/01 11:57:09;;;;;;;0.40;0.40;;;;;;;;;;5053366;28;20191;-66
2022/01/01 11:59:37;;;;;;;0.40;0.40;;;;;;;;;;5054484;28;20426;-67
2022/01/01 12:02:19;;;;;;;0.40;0.40;;;;;;;;;;5054623;28;20381;-66
2022/01/01 12:04:51;;;;;;;0.40;0.40;;;;;;;;;;5054201;28;20420;-67
2022/01/01 12:07:17;;;;;;;0.30;0.30;;;;;;;;;;5054014;28;20184;-67
2022/01/01 12:09:55;;;;;;;0.40;0.40;;;;;;;;;;5054156;28;20896;-67
2022/01/01 12:12:40;;;;;;;0.30;0.30;;;;;;;;;;5034373;28;20392;-62
2022/01/01 12:15:07;;;;;;;0.30;0.30;;;;;;;;;;5034384;28;20462;-66
2022/01/01 12:17:43;;;;;;;0.40;0.40;;;;;;;;;;5034227;28;20461;-66
2022/01/01 12:20:10;;;;;;;0.30;0.30;;;;;;;;;;5034145;28;20476;-67
2022/01/01 12:22:37;;;;;;;0.30;0.30;;;;;;;;;;5040398;28;20486;-66
2022/01/01 12:25:04;;;;;;;0.40;0.40;;;;;;;;;;5054017;28;20412;-67
2022/01/01 12:27:40;;;;;;;0.30;0.30;;;;;;;;;;5050448;28;20389;-66
2022/01/01 12:30:06;;;;;;;0.30;0.30;;;;;;;;;;5035850;28;20404;-66
2022/01/01 12:32:45;;;;;;;0.40;0.40;;;;;;;;;;5033841;28;20431;-64
2022/01/01 12:35:30;;;;;;;0.40;0.40;;;;;;;;;;5034092;28;20426;-67
2022/01/01 12:38:07;;;;;;;0.40;0.40;;;;;;;;;;5033991;28;20469;-64
2022/01/01 12:40:33;;;;;;;0.40;0.40;;;;;;;;;;5034173;28;20411;-65
2022/01/01 12:43:08;;;;;;;0.30;0.30;;;;;;;;;;5015749;28;20444;-66
2022/01/01 12:45:34;;;;;;;0.40;0.40;;;;;;;;;;5033744;28;20874;-66
2022/01/01 12:48:01;;;;;;;0.40;0.40;;;;;;;;;;5015682;28;20394;-67
2022/01/01 12:50:27;;;;;;;0.30;0.30;;;;;;;;;;5033506;28;20802;-66
2022/01/01 12:52:54;;;;;;;0.30;0.30;;;;;;;;;;5033883;28;20436;-68
2022/01/01 12:55:24;;;;;;;0.30;0.30;;;;;;;;;;5034271;28;20513;-67
2022/01/01 12:57:50;;;;;;;0.40;0.40;;;;;;;;;;5033618;28;20846;-67
2022/01/01 13:00:23;;;;;;;0.30;0.30;;;;;;;;;;5033428;28;20507;-68
2022/01/01 13:02:49;;;;;;;0.30;0.30;;;;;;;;;;5015034;28;20451;-66
2022/01/01 13:05:17;;;;;;;0.30;0.30;;;;;;;;;;5033138;28;20481;-67
2022/01/01 13:07:43;;;;;;;0.40;0.40;;;;;;;;;;5033035;28;20477;-67
2022/01/01 13:10:12;;;;;;;0.40;0.40;;;;;;;;;;5033131;28;20416;-66
2022/01/01 13:12:38;;;;;;;0.40;0.40;;;;;;;;;;5032817;28;20465;-66
2022/01/01 13:15:04;;;;;;;0.30;0.30;;;;;;;;;;5032882;28;20425;-66
2022/01/01 13:17:30;;;;;;;0.30;0.30;;;;;;;;;;5032849;28;20412;-67
2022/01/01 13:19:56;;;;;;;0.30;0.30;;;;;;;;;;5032640;28;20430;-66
2022/01/01 13:22:29;;;;;;;0.40;0.40;;;;;;;;;;5032664;28;20949;-64
2022/01/01 13:24:56;;;;;;;0.30;0.30;;;;;;;;;;5033062;28;20915;-67
2022/01/01 13:27:27;;;;;;;0.30;0.30;;;;;;;;;;5032627;28;20404;-65
2022/01/01 13:29:53;;;;;;;0.30;0.30;;;;;;;;;;5033081;28;20420;-67
2022/01/01 13:32:19;;;;;;;0.30;0.30;;;;;;;;;;5032477;28;20495;-66
2022/01/01 13:34:54;;;;;;;0.40;0.40;;;;;;;;;;5032285;28;20574;-69
2022/01/01 13:37:24;;;;;;;0.40;0.40;;;;;;;;;;5032381;28;20903;-66
2022/01/01 13:39:53;;;;;;;0.30;0.30;;;;;;;;;;5032069;28;20378;-67
2022/01/01 13:42:19;;;;;;;0.40;0.40;;;;;;;;;;5031904;28;20934;-66
2022/01/01 13:44:45;;;;;;;0.30;0.30;;;;;;;;;;5032144;28;20598;-66
2022/01/01 13:47:13;;;;;;;0.30;0.30;;;;;;;;;;5032165;28;20806;-66
2022/01/01 13:49:40;;;;;;;0.40;0.40;;;;;;;;;;5032350;28;20346;-66
2022/01/01 13:52:07;;;;;;;0.30;0.30;;;;;;;;;;5031949;28;20392;-65
2022/01/01 13:54:36;;;;;;;0.40;0.40;;;;;;;;;;5032201;28;20418;-66
2022/01/01 13:57:05;;;;;;;0.40;0.40;;;;;;;;;;5032106;28;20901;-66
2022/01/01 13:59:31;;;;;;;0.40;0.40;;;;;;;;;;5032355;28;20431;-65
2022/01/01 14:01:58;;;;;;;0.40;0.40;;;;;;;;;;5014411;28;20879;-65
2022/01/01 14:04:24;;;;;;;0.40;0.40;;;;;;;;;;5031681;28;20220;-65
2022/01/01 14:07:22;;;;;;;0.40;0.40;;;;;;;;;;5031928;28;20427;-66
2022/01/01 14:10:01;;;;;;;0.40;0.40;;;;;;;;;;4998859;28;20712;-66
2022/01/01 14:12:28;;;;;;;0.40;0.40;;;;;;;;;;5031559;28;20194;-61
2022/01/01 14:15:00;;;;;;;0.40;0.40;;;;;;;;;;5031955;28;20202;-66
2022/01/01 14:17:26;;;;;;;0.50;0.50;;;;;;;;;;5032183;28;20379;-65
2022/01/01 14:19:52;;;;;;;0.40;0.40;;;;;;;;;;5031761;28;20246;-65
2022/01/01 14:22:18;;;;;;;0.40;0.40;;;;;;;;;;5031736;28;20950;-66
2022/01/01 14:24:55;;;;;;;0.40;0.40;;;;;;;;;;5013723;28;20427;-66
2022/01/01 14:27:21;;;;;;;0.40;0.40;;;;;;;;;;5032015;28;20477;-67
2022/01/01 14:29:48;;;;;;;0.40;0.40;;;;;;;;;;5032510;28;20189;-67
2022/01/01 14:32:15;;;;;;;0.40;0.40;;;;;;;;;;5032003;28;20443;-66
2022/01/01 14:34:44;;;;;;;0.40;0.40;;;;;;;;;;5031473;28;20179;-64
2022/01/01 14:37:11;;;;;;;0.40;0.40;;;;;;;;;;5031901;28;20543;-65
2022/01/01 14:39:37;;;;;;;0.40;0.40;;;;;;;;;;5031802;28;20172;-66
2022/01/01 14:42:03;;;;;;;0.40;0.40;;;;;;;;;;5031457;28;20222;-66
2022/01/01 14:44:29;;;;;;;0.40;0.40;;;;;;;;;;5031431;28;20415;-66
2022/01/01 14:46:58;;;;;;;0.40;0.40;;;;;;;;;;5031467;28;20226;-65
2022/01/01 14:49:24;;;;;;;0.40;0.40;;;;;;;;;;5031855;28;20410;-66
2022/01/01 14:52:02;;;;;;;0.40;0.40;;;;;;;;;;5031792;28;20181;-67
2022/01/01 14:54:28;;;;;;;0.40;0.40;;;;;;;;;;5033075;28;20431;-66
2022/01/01 14:57:14;;;;;;;0.40;0.40;;;;;;;;;;5036019;28;20175;-66